Карточка аэропорта USSS

Внимание!
Информация на этой странице в стадии наполнения.
Если вы не увидели какой-то информации, или заметили неточность - пожалуйста сообщите нам!
Спасибо!
Команда RU-STAFF
Название аэропортаКольцово
Название аэропорта (англ.)Koltsovo
Превышение766 ft. (233.5 m.)
Координаты56°44.586', 60°48.186'
Высота перехода900m
Эшелон переходаQFE>=739mm:FL050; QFE 712mm-738mm:FL060; QFE<=712mm:FL70
Коды ответчика5520-5557
Зона ОрВДЕкатеринбург РПИ (USSV)
Данные METARUSSS 271130Z 26005MPS 9999 SCT024 M04/M08 Q1015 R26L/010060 NOSIG RMK QFE741/0988
Проноз погоды (TAF)USSS 271055Z 2712/2812 26004G13MPS 6000 -SHSN BKN016CB TEMPO 2712/2722 -SHSN -FZDZ BECMG 2805/2808 9999 NSW
NOTAMshow/hide NOTAM
AWOS   TABLE

Информация о ВПП

ВПП Длина ВПП (м.) Покрытие Курс ВПП Частота ILS
08L3004Асфальтобетон75111.7
26R3004Асфальтобетон255110.5
08R3026Бетон79109.9
26L3026Бетон259109.5

Диспетчерские позиции

Позывной Наименование органа УВД Частота
USSS_R_APPКольцово-Круг118.7
USSS_GNDКольцово-Руление119.0
USSSFM1Машина сопровождения119.000
USSS_TWRКольцово-Старт124.3
USSS_APPКольцово-Подход125.9
USSS_ATIS_APPКольцово АТИС127.850
USSV_FSS_CTRКольцово Транзит131.900



Спутниковое изображение